sensor_id;sensor_type;location;lat;lon;timestamp;P1;durP1;ratioP1;P2;durP2;ratioP2
1412;SDS011;701;52.526;13.408;2023-07-08T00:01:15;7.55;;;3.25;;
1412;SDS011;701;52.526;13.408;2023-07-08T00:03:42;7.22;;;3.55;;
1412;SDS011;701;52.526;13.408;2023-07-08T00:06:13;8.48;;;3.63;;
1412;SDS011;701;52.526;13.408;2023-07-08T00:08:43;7.43;;;3.40;;
1412;SDS011;701;52.526;13.408;2023-07-08T00:11:09;7.72;;;3.75;;
1412;SDS011;701;52.526;13.408;2023-07-08T00:13:36;10.60;;;3.75;;
1412;SDS011;701;52.526;13.408;2023-07-08T00:16:02;6.73;;;3.50;;
1412;SDS011;701;52.526;13.408;2023-07-08T00:18:28;6.90;;;3.65;;
1412;SDS011;701;52.526;13.408;2023-07-08T00:20:54;8.63;;;3.35;;
1412;SDS011;701;52.526;13.408;2023-07-08T00:23:20;7.40;;;3.30;;
1412;SDS011;701;52.526;13.408;2023-07-08T00:25:48;7.97;;;3.60;;
1412;SDS011;701;52.526;13.408;2023-07-08T00:28:17;7.70;;;3.70;;
1412;SDS011;701;52.526;13.408;2023-07-08T00:30:46;9.55;;;3.60;;
1412;SDS011;701;52.526;13.408;2023-07-08T00:33:15;7.87;;;3.40;;
1412;SDS011;701;52.526;13.408;2023-07-08T00:35:42;6.53;;;3.38;;
1412;SDS011;701;52.526;13.408;2023-07-08T00:43:17;8.95;;;3.58;;
1412;SDS011;701;52.526;13.408;2023-07-08T00:45:48;9.53;;;4.00;;
1412;SDS011;701;52.526;13.408;2023-07-08T00:48:19;6.65;;;3.55;;
1412;SDS011;701;52.526;13.408;2023-07-08T00:50:51;6.53;;;3.00;;
1412;SDS011;701;52.526;13.408;2023-07-08T00:53:33;7.40;;;3.22;;
1412;SDS011;701;52.526;13.408;2023-07-08T00:56:01;7.72;;;3.03;;
1412;SDS011;701;52.526;13.408;2023-07-08T00:58:39;7.90;;;3.07;;
1412;SDS011;701;52.526;13.408;2023-07-08T01:01:11;11.13;;;3.30;;
1412;SDS011;701;52.526;13.408;2023-07-08T01:03:40;6.65;;;3.22;;
1412;SDS011;701;52.526;13.408;2023-07-08T01:06:17;6.90;;;3.00;;
1412;SDS011;701;52.526;13.408;2023-07-08T01:08:45;7.88;;;3.40;;
1412;SDS011;701;52.526;13.408;2023-07-08T01:11:12;6.13;;;2.93;;
1412;SDS011;701;52.526;13.408;2023-07-08T01:13:40;6.30;;;3.28;;
1412;SDS011;701;52.526;13.408;2023-07-08T01:16:09;7.05;;;3.00;;
1412;SDS011;701;52.526;13.408;2023-07-08T01:18:35;7.22;;;3.15;;
1412;SDS011;701;52.526;13.408;2023-07-08T01:21:05;9.37;;;3.10;;
1412;SDS011;701;52.526;13.408;2023-07-08T01:23:53;8.90;;;3.22;;
1412;SDS011;701;52.526;13.408;2023-07-08T01:26:21;8.50;;;3.40;;
1412;SDS011;701;52.526;13.408;2023-07-08T01:28:48;7.18;;;3.67;;
1412;SDS011;701;52.526;13.408;2023-07-08T01:31:15;8.37;;;4.00;;
1412;SDS011;701;52.526;13.408;2023-07-08T01:33:40;8.57;;;3.88;;
1412;SDS011;701;52.526;13.408;2023-07-08T01:36:08;8.70;;;4.30;;
1412;SDS011;701;52.526;13.408;2023-07-08T01:38:35;11.75;;;4.35;;
1412;SDS011;701;52.526;13.408;2023-07-08T01:41:04;10.23;;;4.97;;
1412;SDS011;701;52.526;13.408;2023-07-08T01:43:29;8.18;;;3.70;;
1412;SDS011;701;52.526;13.408;2023-07-08T01:45:55;7.50;;;3.90;;
1412;SDS011;701;52.526;13.408;2023-07-08T01:48:25;6.35;;;3.35;;
1412;SDS011;701;52.526;13.408;2023-07-08T01:50:59;6.72;;;3.47;;
1412;SDS011;701;52.526;13.408;2023-07-08T01:53:31;8.10;;;3.75;;
1412;SDS011;701;52.526;13.408;2023-07-08T01:56:05;6.88;;;3.65;;
1412;SDS011;701;52.526;13.408;2023-07-08T01:58:32;8.07;;;3.50;;
1412;SDS011;701;52.526;13.408;2023-07-08T02:00:58;7.68;;;3.35;;
1412;SDS011;701;52.526;13.408;2023-07-08T02:03:25;8.02;;;3.67;;
1412;SDS011;701;52.526;13.408;2023-07-08T02:05:54;8.85;;;3.30;;
1412;SDS011;701;52.526;13.408;2023-07-08T02:08:20;7.78;;;3.58;;
1412;SDS011;701;52.526;13.408;2023-07-08T02:10:57;7.00;;;3.33;;
1412;SDS011;701;52.526;13.408;2023-07-08T02:13:23;8.20;;;3.53;;
1412;SDS011;701;52.526;13.408;2023-07-08T02:15:50;7.50;;;4.10;;
1412;SDS011;701;52.526;13.408;2023-07-08T02:18:16;7.18;;;3.40;;
1412;SDS011;701;52.526;13.408;2023-07-08T02:20:44;8.05;;;3.35;;
1412;SDS011;701;52.526;13.408;2023-07-08T02:23:10;7.37;;;3.30;;
1412;SDS011;701;52.526;13.408;2023-07-08T02:25:36;10.20;;;3.60;;
1412;SDS011;701;52.526;13.408;2023-07-08T02:28:02;8.57;;;3.40;;
1412;SDS011;701;52.526;13.408;2023-07-08T02:30:28;11.67;;;4.07;;
1412;SDS011;701;52.526;13.408;2023-07-08T02:32:54;6.82;;;3.58;;
1412;SDS011;701;52.526;13.408;2023-07-08T02:35:24;8.73;;;4.15;;
1412;SDS011;701;52.526;13.408;2023-07-08T02:37:51;7.75;;;3.42;;
1412;SDS011;701;52.526;13.408;2023-07-08T02:40:18;9.70;;;4.07;;
1412;SDS011;701;52.526;13.408;2023-07-08T02:42:44;9.85;;;3.92;;
1412;SDS011;701;52.526;13.408;2023-07-08T02:45:10;8.10;;;3.30;;
1412;SDS011;701;52.526;13.408;2023-07-08T02:47:37;7.77;;;3.40;;
1412;SDS011;701;52.526;13.408;2023-07-08T02:50:03;7.50;;;3.30;;
1412;SDS011;701;52.526;13.408;2023-07-08T02:52:30;7.45;;;3.33;;
1412;SDS011;701;52.526;13.408;2023-07-08T02:54:56;7.80;;;3.30;;
1412;SDS011;701;52.526;13.408;2023-07-08T02:57:21;7.47;;;3.40;;
1412;SDS011;701;52.526;13.408;2023-07-08T02:59:47;6.80;;;2.90;;
1412;SDS011;701;52.526;13.408;2023-07-08T03:02:13;6.40;;;3.03;;
1412;SDS011;701;52.526;13.408;2023-07-08T03:04:39;6.43;;;3.08;;
1412;SDS011;701;52.526;13.408;2023-07-08T03:07:06;6.72;;;2.88;;
1412;SDS011;701;52.526;13.408;2023-07-08T03:09:39;8.70;;;4.07;;
1412;SDS011;701;52.526;13.408;2023-07-08T03:12:07;7.38;;;3.60;;
1412;SDS011;701;52.526;13.408;2023-07-08T03:14:34;8.00;;;3.20;;
1412;SDS011;701;52.526;13.408;2023-07-08T03:17:01;8.27;;;3.45;;
1412;SDS011;701;52.526;13.408;2023-07-08T03:19:28;8.77;;;3.70;;
1412;SDS011;701;52.526;13.408;2023-07-08T03:21:54;9.93;;;3.30;;
1412;SDS011;701;52.526;13.408;2023-07-08T03:24:20;8.00;;;3.40;;
1412;SDS011;701;52.526;13.408;2023-07-08T03:26:47;6.65;;;3.13;;
1412;SDS011;701;52.526;13.408;2023-07-08T03:29:14;6.57;;;2.97;;
1412;SDS011;701;52.526;13.408;2023-07-08T03:31:43;7.67;;;3.00;;
1412;SDS011;701;52.526;13.408;2023-07-08T03:34:10;6.25;;;3.08;;
1412;SDS011;701;52.526;13.408;2023-07-08T03:36:42;7.03;;;2.80;;
1412;SDS011;701;52.526;13.408;2023-07-08T03:39:17;6.55;;;2.80;;
1412;SDS011;701;52.526;13.408;2023-07-08T03:41:48;6.47;;;3.05;;
1412;SDS011;701;52.526;13.408;2023-07-08T03:44:15;6.73;;;3.27;;
1412;SDS011;701;52.526;13.408;2023-07-08T03:46:42;7.20;;;3.00;;
1412;SDS011;701;52.526;13.408;2023-07-08T03:49:09;7.43;;;2.95;;
1412;SDS011;701;52.526;13.408;2023-07-08T03:51:36;6.90;;;2.95;;
1412;SDS011;701;52.526;13.408;2023-07-08T03:54:04;10.95;;;3.30;;
1412;SDS011;701;52.526;13.408;2023-07-08T03:56:34;7.47;;;3.40;;
1412;SDS011;701;52.526;13.408;2023-07-08T03:59:01;7.70;;;3.30;;
1412;SDS011;701;52.526;13.408;2023-07-08T04:01:30;10.10;;;3.40;;
1412;SDS011;701;52.526;13.408;2023-07-08T04:03:56;8.07;;;3.58;;
1412;SDS011;701;52.526;13.408;2023-07-08T04:06:23;7.38;;;3.42;;
1412;SDS011;701;52.526;13.408;2023-07-08T04:08:50;7.40;;;3.50;;
1412;SDS011;701;52.526;13.408;2023-07-08T04:11:20;8.90;;;3.65;;
1412;SDS011;701;52.526;13.408;2023-07-08T04:13:48;7.43;;;3.70;;
1412;SDS011;701;52.526;13.408;2023-07-08T04:16:24;11.85;;;3.20;;
1412;SDS011;701;52.526;13.408;2023-07-08T04:18:53;7.45;;;3.55;;
1412;SDS011;701;52.526;13.408;2023-07-08T04:21:20;11.10;;;3.57;;
1412;SDS011;701;52.526;13.408;2023-07-08T04:23:48;8.23;;;3.33;;
1412;SDS011;701;52.526;13.408;2023-07-08T04:26:14;6.90;;;3.22;;
1412;SDS011;701;52.526;13.408;2023-07-08T04:28:41;7.72;;;3.70;;
1412;SDS011;701;52.526;13.408;2023-07-08T04:31:07;6.13;;;3.20;;
1412;SDS011;701;52.526;13.408;2023-07-08T04:33:33;7.23;;;3.60;;
1412;SDS011;701;52.526;13.408;2023-07-08T04:35:58;6.60;;;3.10;;
1412;SDS011;701;52.526;13.408;2023-07-08T04:38:25;6.72;;;3.30;;
1412;SDS011;701;52.526;13.408;2023-07-08T04:40:52;9.07;;;3.33;;
1412;SDS011;701;52.526;13.408;2023-07-08T04:43:19;8.57;;;3.40;;
1412;SDS011;701;52.526;13.408;2023-07-08T04:45:50;6.90;;;3.55;;
1412;SDS011;701;52.526;13.408;2023-07-08T04:48:18;8.65;;;3.55;;
1412;SDS011;701;52.526;13.408;2023-07-08T04:50:47;12.18;;;3.50;;
1412;SDS011;701;52.526;13.408;2023-07-08T04:53:15;9.40;;;3.20;;
1412;SDS011;701;52.526;13.408;2023-07-08T04:55:42;6.47;;;3.13;;
1412;SDS011;701;52.526;13.408;2023-07-08T04:58:11;6.40;;;3.10;;
1412;SDS011;701;52.526;13.408;2023-07-08T05:00:37;7.40;;;3.40;;
1412;SDS011;701;52.526;13.408;2023-07-08T05:03:02;9.50;;;4.30;;
1412;SDS011;701;52.526;13.408;2023-07-08T05:05:28;9.05;;;4.30;;
1412;SDS011;701;52.526;13.408;2023-07-08T05:07:54;8.77;;;3.80;;
1412;SDS011;701;52.526;13.408;2023-07-08T05:10:20;8.60;;;4.15;;
1412;SDS011;701;52.526;13.408;2023-07-08T05:12:47;7.63;;;3.65;;
1412;SDS011;701;52.526;13.408;2023-07-08T05:15:13;8.75;;;3.60;;
1412;SDS011;701;52.526;13.408;2023-07-08T05:17:40;7.18;;;3.28;;
1412;SDS011;701;52.526;13.408;2023-07-08T05:20:07;10.60;;;3.43;;
1412;SDS011;701;52.526;13.408;2023-07-08T05:22:34;8.20;;;3.50;;
1412;SDS011;701;52.526;13.408;2023-07-08T05:25:00;7.50;;;3.47;;
1412;SDS011;701;52.526;13.408;2023-07-08T05:27:26;12.20;;;4.57;;
1412;SDS011;701;52.526;13.408;2023-07-08T05:29:52;7.43;;;3.53;;
1412;SDS011;701;52.526;13.408;2023-07-08T05:32:18;8.20;;;3.03;;
1412;SDS011;701;52.526;13.408;2023-07-08T05:34:44;6.72;;;3.20;;
1412;SDS011;701;52.526;13.408;2023-07-08T05:37:11;7.72;;;3.30;;
1412;SDS011;701;52.526;13.408;2023-07-08T05:39:38;6.72;;;3.20;;
1412;SDS011;701;52.526;13.408;2023-07-08T05:42:04;8.07;;;3.28;;
1412;SDS011;701;52.526;13.408;2023-07-08T05:44:30;7.43;;;3.03;;
1412;SDS011;701;52.526;13.408;2023-07-08T05:46:56;7.50;;;2.97;;
1412;SDS011;701;52.526;13.408;2023-07-08T05:49:21;8.53;;;3.13;;
1412;SDS011;701;52.526;13.408;2023-07-08T05:51:47;10.98;;;3.10;;
1412;SDS011;701;52.526;13.408;2023-07-08T05:54:13;6.63;;;3.20;;
1412;SDS011;701;52.526;13.408;2023-07-08T05:56:40;7.78;;;3.40;;
1412;SDS011;701;52.526;13.408;2023-07-08T05:59:06;6.75;;;3.05;;
1412;SDS011;701;52.526;13.408;2023-07-08T06:01:32;7.28;;;3.13;;
1412;SDS011;701;52.526;13.408;2023-07-08T06:03:57;7.20;;;3.20;;
1412;SDS011;701;52.526;13.408;2023-07-08T06:06:24;6.32;;;3.35;;
1412;SDS011;701;52.526;13.408;2023-07-08T06:08:51;6.18;;;3.08;;
1412;SDS011;701;52.526;13.408;2023-07-08T06:11:17;9.00;;;3.40;;
1412;SDS011;701;52.526;13.408;2023-07-08T06:13:43;7.53;;;3.17;;
1412;SDS011;701;52.526;13.408;2023-07-08T06:16:09;8.13;;;3.33;;
1412;SDS011;701;52.526;13.408;2023-07-08T06:18:35;9.82;;;2.78;;
1412;SDS011;701;52.526;13.408;2023-07-08T06:21:01;6.70;;;2.77;;
1412;SDS011;701;52.526;13.408;2023-07-08T06:23:27;7.93;;;3.30;;
1412;SDS011;701;52.526;13.408;2023-07-08T06:25:53;6.38;;;3.08;;
1412;SDS011;701;52.526;13.408;2023-07-08T06:28:19;6.40;;;3.03;;
1412;SDS011;701;52.526;13.408;2023-07-08T06:30:45;12.53;;;3.03;;
1412;SDS011;701;52.526;13.408;2023-07-08T06:33:11;5.40;;;2.72;;
1412;SDS011;701;52.526;13.408;2023-07-08T06:35:38;7.47;;;3.38;;
1412;SDS011;701;52.526;13.408;2023-07-08T06:38:05;7.57;;;2.92;;
1412;SDS011;701;52.526;13.408;2023-07-08T06:40:31;8.10;;;3.03;;
1412;SDS011;701;52.526;13.408;2023-07-08T06:42:57;11.17;;;3.30;;
1412;SDS011;701;52.526;13.408;2023-07-08T06:45:35;7.72;;;3.20;;
1412;SDS011;701;52.526;13.408;2023-07-08T06:48:01;6.63;;;3.30;;
1412;SDS011;701;52.526;13.408;2023-07-08T06:50:26;6.97;;;3.20;;
1412;SDS011;701;52.526;13.408;2023-07-08T06:52:55;6.70;;;3.27;;
1412;SDS011;701;52.526;13.408;2023-07-08T06:55:21;7.22;;;3.20;;
1412;SDS011;701;52.526;13.408;2023-07-08T06:57:47;7.47;;;3.35;;
1412;SDS011;701;52.526;13.408;2023-07-08T07:00:12;6.17;;;3.23;;
1412;SDS011;701;52.526;13.408;2023-07-08T07:02:39;6.78;;;3.25;;
1412;SDS011;701;52.526;13.408;2023-07-08T07:05:05;8.77;;;3.97;;
1412;SDS011;701;52.526;13.408;2023-07-08T07:07:31;7.33;;;3.70;;
1412;SDS011;701;52.526;13.408;2023-07-08T07:09:57;6.70;;;3.40;;
1412;SDS011;701;52.526;13.408;2023-07-08T07:12:24;7.00;;;3.90;;
1412;SDS011;701;52.526;13.408;2023-07-08T07:14:50;6.88;;;3.30;;
1412;SDS011;701;52.526;13.408;2023-07-08T07:17:18;7.87;;;3.90;;
1412;SDS011;701;52.526;13.408;2023-07-08T07:19:47;7.28;;;3.63;;
1412;SDS011;701;52.526;13.408;2023-07-08T07:22:13;6.55;;;3.75;;
1412;SDS011;701;52.526;13.408;2023-07-08T07:24:39;8.15;;;3.50;;
1412;SDS011;701;52.526;13.408;2023-07-08T07:27:05;8.27;;;4.30;;
1412;SDS011;701;52.526;13.408;2023-07-08T07:29:38;7.80;;;3.42;;
1412;SDS011;701;52.526;13.408;2023-07-08T07:32:09;7.68;;;3.35;;
1412;SDS011;701;52.526;13.408;2023-07-08T07:34:35;7.82;;;4.13;;
1412;SDS011;701;52.526;13.408;2023-07-08T07:37:01;6.23;;;4.07;;
1412;SDS011;701;52.526;13.408;2023-07-08T07:39:27;7.35;;;4.10;;
1412;SDS011;701;52.526;13.408;2023-07-08T07:41:54;6.55;;;4.00;;
1412;SDS011;701;52.526;13.408;2023-07-08T07:44:20;7.38;;;4.30;;
1412;SDS011;701;52.526;13.408;2023-07-08T07:46:45;7.30;;;4.27;;
1412;SDS011;701;52.526;13.408;2023-07-08T07:49:12;7.60;;;4.55;;
1412;SDS011;701;52.526;13.408;2023-07-08T07:51:38;9.50;;;4.30;;
1412;SDS011;701;52.526;13.408;2023-07-08T07:54:04;6.40;;;4.13;;
1412;SDS011;701;52.526;13.408;2023-07-08T07:56:30;7.60;;;5.17;;
1412;SDS011;701;52.526;13.408;2023-07-08T07:58:55;7.72;;;4.40;;
1412;SDS011;701;52.526;13.408;2023-07-08T08:01:21;7.38;;;5.38;;
1412;SDS011;701;52.526;13.408;2023-07-08T08:03:48;6.33;;;5.10;;
1412;SDS011;701;52.526;13.408;2023-07-08T08:06:16;7.40;;;4.28;;
1412;SDS011;701;52.526;13.408;2023-07-08T08:08:43;6.07;;;4.70;;
1412;SDS011;701;52.526;13.408;2023-07-08T08:11:10;6.18;;;4.95;;
1412;SDS011;701;52.526;13.408;2023-07-08T08:13:36;8.17;;;5.23;;
1412;SDS011;701;52.526;13.408;2023-07-08T08:16:01;8.07;;;4.70;;
1412;SDS011;701;52.526;13.408;2023-07-08T08:18:29;7.20;;;5.18;;
1412;SDS011;701;52.526;13.408;2023-07-08T08:20:55;8.50;;;5.60;;
1412;SDS011;701;52.526;13.408;2023-07-08T08:23:21;6.35;;;4.82;;
1412;SDS011;701;52.526;13.408;2023-07-08T08:25:47;9.00;;;4.87;;
1412;SDS011;701;52.526;13.408;2023-07-08T08:28:12;8.03;;;4.60;;
1412;SDS011;701;52.526;13.408;2023-07-08T08:30:38;7.78;;;5.53;;
1412;SDS011;701;52.526;13.408;2023-07-08T08:33:04;7.53;;;5.18;;
1412;SDS011;701;52.526;13.408;2023-07-08T08:35:30;7.47;;;5.33;;
1412;SDS011;701;52.526;13.408;2023-07-08T08:37:56;10.02;;;5.85;;
1412;SDS011;701;52.526;13.408;2023-07-08T08:40:21;12.13;;;5.70;;
1412;SDS011;701;52.526;13.408;2023-07-08T08:42:51;10.63;;;7.03;;
1412;SDS011;701;52.526;13.408;2023-07-08T08:45:18;7.55;;;6.18;;
1412;SDS011;701;52.526;13.408;2023-07-08T08:47:50;9.40;;;5.50;;
1412;SDS011;701;52.526;13.408;2023-07-08T08:52:59;9.07;;;5.80;;
1412;SDS011;701;52.526;13.408;2023-07-08T08:55:27;6.80;;;5.20;;
1412;SDS011;701;52.526;13.408;2023-07-08T09:00:31;6.93;;;5.20;;
1412;SDS011;701;52.526;13.408;2023-07-08T09:06:24;9.80;;;6.18;;
1412;SDS011;701;52.526;13.408;2023-07-08T09:09:00;6.85;;;5.75;;
1412;SDS011;701;52.526;13.408;2023-07-08T09:14:20;6.77;;;4.80;;
1412;SDS011;701;52.526;13.408;2023-07-08T09:19:35;6.03;;;4.53;;
1412;SDS011;701;52.526;13.408;2023-07-08T09:25:28;6.78;;;4.70;;
1412;SDS011;701;52.526;13.408;2023-07-08T09:28:01;7.20;;;4.70;;
1412;SDS011;701;52.526;13.408;2023-07-08T09:30:27;8.77;;;4.43;;
1412;SDS011;701;52.526;13.408;2023-07-08T09:32:55;5.93;;;4.80;;
1412;SDS011;701;52.526;13.408;2023-07-08T09:35:28;7.07;;;4.32;;
1412;SDS011;701;52.526;13.408;2023-07-08T09:38:07;6.13;;;4.20;;
1412;SDS011;701;52.526;13.408;2023-07-08T09:40:42;6.37;;;3.93;;
1412;SDS011;701;52.526;13.408;2023-07-08T09:43:27;5.85;;;3.42;;
1412;SDS011;701;52.526;13.408;2023-07-08T09:46:13;5.15;;;3.60;;
1412;SDS011;701;52.526;13.408;2023-07-08T09:48:40;7.80;;;3.97;;
1412;SDS011;701;52.526;13.408;2023-07-08T09:51:06;6.43;;;3.57;;
1412;SDS011;701;52.526;13.408;2023-07-08T09:53:33;5.78;;;4.18;;
1412;SDS011;701;52.526;13.408;2023-07-08T09:56:00;6.80;;;3.58;;
1412;SDS011;701;52.526;13.408;2023-07-08T09:58:33;5.82;;;3.42;;
1412;SDS011;701;52.526;13.408;2023-07-08T10:01:08;5.70;;;3.58;;
1412;SDS011;701;52.526;13.408;2023-07-08T10:03:38;7.87;;;3.43;;
1412;SDS011;701;52.526;13.408;2023-07-08T10:06:05;6.10;;;3.63;;
1412;SDS011;701;52.526;13.408;2023-07-08T10:08:40;6.47;;;3.67;;
1412;SDS011;701;52.526;13.408;2023-07-08T10:13:49;5.77;;;3.57;;
1412;SDS011;701;52.526;13.408;2023-07-08T10:16:23;6.78;;;3.25;;
1412;SDS011;701;52.526;13.408;2023-07-08T10:18:59;5.18;;;3.28;;
1412;SDS011;701;52.526;13.408;2023-07-08T10:29:57;5.78;;;3.33;;
1412;SDS011;701;52.526;13.408;2023-07-08T10:32:40;5.05;;;2.95;;
1412;SDS011;701;52.526;13.408;2023-07-08T10:35:35;5.43;;;3.10;;
1412;SDS011;701;52.526;13.408;2023-07-08T10:41:09;7.47;;;2.83;;
1412;SDS011;701;52.526;13.408;2023-07-08T10:49:20;5.47;;;3.20;;
1412;SDS011;701;52.526;13.408;2023-07-08T10:52:06;5.72;;;3.25;;
1412;SDS011;701;52.526;13.408;2023-07-08T11:03:18;5.78;;;3.03;;
1412;SDS011;701;52.526;13.408;2023-07-08T11:05:50;5.60;;;2.95;;
1412;SDS011;701;52.526;13.408;2023-07-08T11:08:44;5.63;;;2.50;;
1412;SDS011;701;52.526;13.408;2023-07-08T11:14:10;6.78;;;2.70;;
1412;SDS011;701;52.526;13.408;2023-07-08T11:19:26;5.90;;;2.70;;
1412;SDS011;701;52.526;13.408;2023-07-08T11:22:00;7.10;;;2.93;;
1412;SDS011;701;52.526;13.408;2023-07-08T11:27:05;5.85;;;2.80;;
1412;SDS011;701;52.526;13.408;2023-07-08T11:29:42;6.05;;;2.60;;
1412;SDS011;701;52.526;13.408;2023-07-08T11:32:15;6.22;;;2.92;;
1412;SDS011;701;52.526;13.408;2023-07-08T11:34:43;5.70;;;2.73;;
1412;SDS011;701;52.526;13.408;2023-07-08T11:37:11;5.72;;;2.88;;
1412;SDS011;701;52.526;13.408;2023-07-08T11:39:42;6.15;;;2.38;;
1412;SDS011;701;52.526;13.408;2023-07-08T11:44:56;6.13;;;2.70;;
1412;SDS011;701;52.526;13.408;2023-07-08T11:47:32;5.73;;;2.90;;
1412;SDS011;701;52.526;13.408;2023-07-08T11:50:14;5.72;;;2.83;;
1412;SDS011;701;52.526;13.408;2023-07-08T11:55:34;5.28;;;2.67;;
1412;SDS011;701;52.526;13.408;2023-07-08T11:58:00;6.45;;;2.70;;
1412;SDS011;701;52.526;13.408;2023-07-08T12:00:29;5.57;;;2.80;;
1412;SDS011;701;52.526;13.408;2023-07-08T12:05:46;4.78;;;2.33;;
1412;SDS011;701;52.526;13.408;2023-07-08T12:08:17;6.07;;;2.63;;
1412;SDS011;701;52.526;13.408;2023-07-08T12:10:48;15.55;;;3.38;;
1412;SDS011;701;52.526;13.408;2023-07-08T12:13:17;6.37;;;2.90;;
1412;SDS011;701;52.526;13.408;2023-07-08T12:15:45;6.15;;;2.42;;
1412;SDS011;701;52.526;13.408;2023-07-08T12:20:41;5.47;;;2.60;;
1412;SDS011;701;52.526;13.408;2023-07-08T12:23:11;5.60;;;2.63;;
1412;SDS011;701;52.526;13.408;2023-07-08T12:25:38;5.30;;;2.50;;
1412;SDS011;701;52.526;13.408;2023-07-08T12:28:04;5.57;;;3.00;;
1412;SDS011;701;52.526;13.408;2023-07-08T12:30:31;9.60;;;2.80;;
1412;SDS011;701;52.526;13.408;2023-07-08T12:32:58;7.53;;;2.80;;
1412;SDS011;701;52.526;13.408;2023-07-08T12:35:26;8.57;;;3.00;;
1412;SDS011;701;52.526;13.408;2023-07-08T12:40:42;6.53;;;3.00;;
1412;SDS011;701;52.526;13.408;2023-07-08T12:43:09;5.32;;;2.60;;
1412;SDS011;701;52.526;13.408;2023-07-08T12:45:35;6.45;;;2.67;;
1412;SDS011;701;52.526;13.408;2023-07-08T12:48:02;5.40;;;2.73;;
1412;SDS011;701;52.526;13.408;2023-07-08T12:50:28;5.63;;;2.40;;
1412;SDS011;701;52.526;13.408;2023-07-08T12:52:54;6.20;;;2.80;;
1412;SDS011;701;52.526;13.408;2023-07-08T12:55:21;6.55;;;3.05;;
1412;SDS011;701;52.526;13.408;2023-07-08T12:57:49;6.35;;;2.67;;
1412;SDS011;701;52.526;13.408;2023-07-08T13:00:21;8.87;;;2.87;;
1412;SDS011;701;52.526;13.408;2023-07-08T13:03:26;6.82;;;2.70;;
1412;SDS011;701;52.526;13.408;2023-07-08T13:05:47;6.80;;;2.97;;
1412;SDS011;701;52.526;13.408;2023-07-08T13:08:15;5.93;;;2.80;;
1412;SDS011;701;52.526;13.408;2023-07-08T13:10:45;5.65;;;2.92;;
1412;SDS011;701;52.526;13.408;2023-07-08T13:13:12;6.73;;;3.00;;
1412;SDS011;701;52.526;13.408;2023-07-08T13:15:42;6.03;;;2.70;;
1412;SDS011;701;52.526;13.408;2023-07-08T13:18:13;6.93;;;2.60;;
1412;SDS011;701;52.526;13.408;2023-07-08T13:20:39;5.72;;;2.60;;
1412;SDS011;701;52.526;13.408;2023-07-08T13:23:07;6.82;;;2.85;;
1412;SDS011;701;52.526;13.408;2023-07-08T13:25:33;8.40;;;2.47;;
1412;SDS011;701;52.526;13.408;2023-07-08T13:28:14;5.85;;;2.95;;
1412;SDS011;701;52.526;13.408;2023-07-08T13:33:17;6.72;;;3.33;;
1412;SDS011;701;52.526;13.408;2023-07-08T13:35:44;6.22;;;2.90;;
1412;SDS011;701;52.526;13.408;2023-07-08T13:38:21;6.73;;;2.47;;
1412;SDS011;701;52.526;13.408;2023-07-08T13:40:52;6.45;;;2.75;;
1412;SDS011;701;52.526;13.408;2023-07-08T13:43:26;6.38;;;2.70;;
1412;SDS011;701;52.526;13.408;2023-07-08T13:45:53;6.47;;;2.83;;
1412;SDS011;701;52.526;13.408;2023-07-08T13:48:24;9.45;;;2.85;;
1412;SDS011;701;52.526;13.408;2023-07-08T13:55:59;6.75;;;2.45;;
1412;SDS011;701;52.526;13.408;2023-07-08T13:58:27;5.28;;;2.50;;
1412;SDS011;701;52.526;13.408;2023-07-08T14:00:55;6.55;;;3.00;;
1412;SDS011;701;52.526;13.408;2023-07-08T14:03:21;8.20;;;2.90;;
1412;SDS011;701;52.526;13.408;2023-07-08T14:05:47;5.25;;;2.58;;
1412;SDS011;701;52.526;13.408;2023-07-08T14:08:14;5.27;;;2.53;;
1412;SDS011;701;52.526;13.408;2023-07-08T14:10:41;5.47;;;2.55;;
1412;SDS011;701;52.526;13.408;2023-07-08T14:13:09;6.68;;;2.83;;
1412;SDS011;701;52.526;13.408;2023-07-08T14:15:36;17.25;;;2.80;;
1412;SDS011;701;52.526;13.408;2023-07-08T14:18:05;6.60;;;3.13;;
1412;SDS011;701;52.526;13.408;2023-07-08T14:20:33;5.40;;;2.67;;
1412;SDS011;701;52.526;13.408;2023-07-08T14:22:59;5.30;;;2.65;;
1412;SDS011;701;52.526;13.408;2023-07-08T14:25:25;7.33;;;2.77;;
1412;SDS011;701;52.526;13.408;2023-07-08T14:27:51;6.20;;;3.20;;
1412;SDS011;701;52.526;13.408;2023-07-08T14:30:16;6.47;;;2.97;;
1412;SDS011;701;52.526;13.408;2023-07-08T14:32:43;6.10;;;2.50;;
1412;SDS011;701;52.526;13.408;2023-07-08T14:35:28;8.37;;;3.87;;
1412;SDS011;701;52.526;13.408;2023-07-08T14:37:55;8.23;;;4.28;;
1412;SDS011;701;52.526;13.408;2023-07-08T14:42:52;6.63;;;2.70;;
1412;SDS011;701;52.526;13.408;2023-07-08T14:45:36;5.63;;;2.65;;
1412;SDS011;701;52.526;13.408;2023-07-08T14:48:09;6.40;;;2.90;;
1412;SDS011;701;52.526;13.408;2023-07-08T14:50:36;6.18;;;3.03;;
1412;SDS011;701;52.526;13.408;2023-07-08T14:53:02;8.02;;;3.30;;
1412;SDS011;701;52.526;13.408;2023-07-08T14:55:29;7.85;;;3.08;;
1412;SDS011;701;52.526;13.408;2023-07-08T14:57:54;6.07;;;3.00;;
1412;SDS011;701;52.526;13.408;2023-07-08T15:00:22;6.10;;;2.70;;
1412;SDS011;701;52.526;13.408;2023-07-08T15:02:48;5.93;;;2.75;;
1412;SDS011;701;52.526;13.408;2023-07-08T15:05:17;5.65;;;2.97;;
1412;SDS011;701;52.526;13.408;2023-07-08T15:07:48;6.35;;;2.90;;
1412;SDS011;701;52.526;13.408;2023-07-08T15:10:18;8.93;;;3.20;;
1412;SDS011;701;52.526;13.408;2023-07-08T15:12:45;7.68;;;2.65;;
1412;SDS011;701;52.526;13.408;2023-07-08T15:15:13;6.00;;;2.80;;
1412;SDS011;701;52.526;13.408;2023-07-08T15:17:41;7.95;;;2.90;;
1412;SDS011;701;52.526;13.408;2023-07-08T15:20:09;5.63;;;2.63;;
1412;SDS011;701;52.526;13.408;2023-07-08T15:22:38;5.37;;;2.90;;
1412;SDS011;701;52.526;13.408;2023-07-08T15:25:04;6.50;;;3.30;;
1412;SDS011;701;52.526;13.408;2023-07-08T15:27:31;7.25;;;3.38;;
1412;SDS011;701;52.526;13.408;2023-07-08T15:29:57;6.85;;;2.80;;
1412;SDS011;701;52.526;13.408;2023-07-08T15:32:22;6.43;;;3.00;;
1412;SDS011;701;52.526;13.408;2023-07-08T15:34:48;5.97;;;2.85;;
1412;SDS011;701;52.526;13.408;2023-07-08T15:37:14;6.17;;;2.60;;
1412;SDS011;701;52.526;13.408;2023-07-08T15:39:39;6.07;;;2.80;;
1412;SDS011;701;52.526;13.408;2023-07-08T15:42:09;6.93;;;3.20;;
1412;SDS011;701;52.526;13.408;2023-07-08T15:44:37;7.93;;;2.92;;
1412;SDS011;701;52.526;13.408;2023-07-08T15:47:03;7.47;;;2.85;;
1412;SDS011;701;52.526;13.408;2023-07-08T15:49:29;6.78;;;3.80;;
1412;SDS011;701;52.526;13.408;2023-07-08T15:51:59;6.32;;;3.08;;
1412;SDS011;701;52.526;13.408;2023-07-08T15:54:25;12.10;;;3.50;;
1412;SDS011;701;52.526;13.408;2023-07-08T15:56:51;13.32;;;5.88;;
1412;SDS011;701;52.526;13.408;2023-07-08T15:59:22;7.82;;;5.30;;
1412;SDS011;701;52.526;13.408;2023-07-08T16:01:53;12.55;;;5.78;;
1412;SDS011;701;52.526;13.408;2023-07-08T16:04:26;8.85;;;3.03;;
1412;SDS011;701;52.526;13.408;2023-07-08T16:06:56;7.53;;;3.30;;
1412;SDS011;701;52.526;13.408;2023-07-08T16:09:23;8.73;;;3.05;;
1412;SDS011;701;52.526;13.408;2023-07-08T16:11:48;6.30;;;3.05;;
1412;SDS011;701;52.526;13.408;2023-07-08T16:14:15;6.28;;;3.10;;
1412;SDS011;701;52.526;13.408;2023-07-08T16:16:42;7.07;;;4.20;;
1412;SDS011;701;52.526;13.408;2023-07-08T16:19:09;6.60;;;3.17;;
1412;SDS011;701;52.526;13.408;2023-07-08T16:21:36;5.32;;;2.70;;
1412;SDS011;701;52.526;13.408;2023-07-08T16:24:02;8.50;;;3.70;;
1412;SDS011;701;52.526;13.408;2023-07-08T16:26:28;7.22;;;3.53;;
1412;SDS011;701;52.526;13.408;2023-07-08T16:28:54;5.90;;;3.00;;
1412;SDS011;701;52.526;13.408;2023-07-08T16:31:21;6.30;;;3.33;;
1412;SDS011;701;52.526;13.408;2023-07-08T16:33:51;5.50;;;2.55;;
1412;SDS011;701;52.526;13.408;2023-07-08T16:36:19;5.93;;;2.92;;
1412;SDS011;701;52.526;13.408;2023-07-08T16:38:52;5.45;;;2.45;;
1412;SDS011;701;52.526;13.408;2023-07-08T16:41:24;7.20;;;2.83;;
1412;SDS011;701;52.526;13.408;2023-07-08T16:43:54;6.20;;;2.90;;
1412;SDS011;701;52.526;13.408;2023-07-08T16:46:21;6.38;;;3.00;;